Time;durP1;ratioP1;P1;durP2;ratioP2;P2;SDS_P1;SDS_P2;PMS_P1;PMS_P2;Temp;Humidity;BMP_temperature;BMP_pressure;BME280_temperature;BME280_humidity;BME280_pressure;Samples;Min_cycle;Max_cycle;Signal;HPM_P1;HPM_P2
2022/11/10 00:00:51;;;;;;;9.05;5.93;;;9.30;99.90;;;;;;4933585;28;20031;-75
2022/11/10 00:03:17;;;;;;;10.60;6.50;;;9.20;99.90;;;;;;4927789;28;20031;-75
2022/11/10 00:05:42;;;;;;;11.82;6.20;;;9.10;99.90;;;;;;4928454;29;20526;-75
2022/11/10 00:08:10;;;;;;;9.48;5.55;;;9.10;99.90;;;;;;4942185;28;20101;-75
2022/11/10 00:10:56;;;;;;;10.88;6.10;;;9.10;99.90;;;;;;4928553;28;20122;-75
2022/11/10 00:13:31;;;;;;;10.95;7.10;;;9.10;99.90;;;;;;4929122;28;20036;-75
2022/11/10 00:18:41;;;;;;;9.85;6.63;;;9.30;99.90;;;;;;4942239;28;19978;-75
2022/11/10 00:21:10;;;;;;;14.52;6.65;;;9.30;99.90;;;;;;4939584;28;20023;-75
2022/11/10 00:23:35;;;;;;;11.20;6.40;;;9.20;99.90;;;;;;4946606;28;20039;-75
2022/11/10 00:26:01;;;;;;;11.18;5.38;;;9.20;99.90;;;;;;4936767;28;20042;-75
2022/11/10 00:28:30;;;;;;;11.05;6.30;;;9.20;99.90;;;;;;4934990;28;20035;-75
2022/11/10 00:30:56;;;;;;;10.60;6.30;;;9.10;99.90;;;;;;4932743;28;20542;-75
2022/11/10 00:33:22;;;;;;;10.50;6.93;;;9.10;99.90;;;;;;4938541;29;20387;-75
2022/11/10 00:35:48;;;;;;;11.25;6.68;;;9.10;99.90;;;;;;4941328;28;20047;-75
2022/11/10 00:38:13;;;;;;;11.65;6.40;;;9.10;99.90;;;;;;4932097;28;20525;-75
2022/11/10 00:40:39;;;;;;;10.32;5.80;;;9.10;99.90;;;;;;4934110;28;20099;-75
2022/11/10 00:43:05;;;;;;;10.05;6.30;;;9.10;99.90;;;;;;4937445;28;20636;-75
2022/11/10 00:45:30;;;;;;;11.27;5.88;;;9.10;99.90;;;;;;4935072;28;20107;-76
2022/11/10 00:47:56;;;;;;;8.23;5.82;;;9.20;99.90;;;;;;4934962;28;20505;-75
2022/11/10 00:50:22;;;;;;;10.63;6.47;;;9.20;99.90;;;;;;4941854;28;20032;-75
2022/11/10 00:52:47;;;;;;;10.25;7.05;;;9.20;99.90;;;;;;4930884;28;20114;-76
2022/11/10 00:55:13;;;;;;;12.63;7.00;;;9.20;99.90;;;;;;4931066;28;20471;-75
2022/11/10 00:57:39;;;;;;;11.52;7.18;;;9.10;99.90;;;;;;4940410;28;20435;-75
2022/11/10 01:00:05;;;;;;;14.63;6.90;;;9.20;99.90;;;;;;4935060;28;20035;-75
2022/11/10 01:02:31;;;;;;;10.23;6.00;;;9.20;99.90;;;;;;4938184;28;20065;-75
2022/11/10 01:04:56;;;;;;;9.48;6.75;;;9.10;99.90;;;;;;4932160;29;20063;-75
2022/11/10 01:07:22;;;;;;;9.65;7.15;;;9.10;99.90;;;;;;4947929;28;20505;-75
2022/11/10 01:09:47;;;;;;;10.82;6.70;;;9.10;99.90;;;;;;4944301;28;20477;-76
2022/11/10 01:12:13;;;;;;;10.05;7.13;;;9.10;99.90;;;;;;4938026;28;20534;-75
2022/11/10 01:14:39;;;;;;;12.00;7.30;;;9.20;99.90;;;;;;4931534;28;20071;-75
2022/11/10 01:17:05;;;;;;;10.32;7.00;;;9.20;99.90;;;;;;4943334;28;20508;-75
2022/11/10 01:19:30;;;;;;;10.65;7.10;;;9.10;99.90;;;;;;4945663;28;20043;-75
2022/11/10 01:21:57;;;;;;;14.23;8.35;;;9.10;99.90;;;;;;4949989;28;20019;-75
2022/11/10 01:24:22;;;;;;;13.30;7.15;;;9.10;99.90;;;;;;4940704;28;20082;-76
2022/11/10 01:26:48;;;;;;;10.35;6.85;;;9.20;99.90;;;;;;4938227;28;20490;-75
2022/11/10 01:29:13;;;;;;;10.02;6.38;;;9.20;99.90;;;;;;4947787;28;20042;-76
2022/11/10 01:31:39;;;;;;;9.57;6.10;;;9.20;99.90;;;;;;4948095;28;20032;-76
2022/11/10 01:34:05;;;;;;;10.95;6.90;;;9.20;99.90;;;;;;4944175;28;20030;-75
2022/11/10 01:36:31;;;;;;;10.70;6.68;;;9.20;99.90;;;;;;4940897;28;20031;-75
2022/11/10 01:38:57;;;;;;;9.93;5.97;;;9.20;99.90;;;;;;4941048;28;20042;-76
2022/11/10 01:41:23;;;;;;;11.10;7.00;;;9.20;99.90;;;;;;4938845;28;20057;-75
2022/11/10 01:43:48;;;;;;;10.45;6.45;;;9.10;99.90;;;;;;4949685;28;20031;-75
2022/11/10 01:46:14;;;;;;;10.82;6.13;;;9.20;99.90;;;;;;4945737;28;20031;-75
2022/11/10 01:48:59;;;;;;;9.85;6.40;;;9.20;99.90;;;;;;4941822;28;20038;-75
2022/11/10 01:51:25;;;;;;;9.05;5.55;;;9.20;99.90;;;;;;4940543;29;20042;-75
2022/11/10 01:53:58;;;;;;;12.77;5.65;;;9.30;99.90;;;;;;4942963;28;20387;-75
2022/11/10 01:56:27;;;;;;;10.27;5.90;;;9.30;99.90;;;;;;4941668;29;20441;-75
2022/11/10 01:58:57;;;;;;;10.15;6.53;;;9.20;99.90;;;;;;4951242;28;20512;-75
2022/11/10 02:01:24;;;;;;;9.57;6.18;;;9.20;99.90;;;;;;4934388;28;20040;-75
2022/11/10 02:03:54;;;;;;;11.48;7.00;;;9.30;99.90;;;;;;4942810;28;20023;-75
2022/11/10 02:06:23;;;;;;;10.07;7.13;;;9.30;99.90;;;;;;4940761;28;20048;-75
2022/11/10 02:08:50;;;;;;;11.63;7.43;;;9.30;99.90;;;;;;4939727;28;20036;-75
2022/11/10 02:11:16;;;;;;;12.15;7.35;;;9.30;99.90;;;;;;4949303;28;20027;-75
2022/11/10 02:13:42;;;;;;;9.95;6.63;;;9.20;99.90;;;;;;4954287;28;20054;-75
2022/11/10 02:16:09;;;;;;;8.98;5.90;;;9.20;99.90;;;;;;4943548;28;20031;-76
2022/11/10 02:18:36;;;;;;;13.80;7.38;;;9.20;99.90;;;;;;4940408;28;20494;-75
2022/11/10 02:21:03;;;;;;;10.73;6.65;;;9.10;99.90;;;;;;4936854;28;20162;-75
2022/11/10 02:23:29;;;;;;;12.55;7.78;;;9.20;99.90;;;;;;4942199;28;20035;-76
2022/11/10 02:25:56;;;;;;;12.90;6.72;;;9.20;99.90;;;;;;4935799;28;20402;-75
2022/11/10 02:28:22;;;;;;;13.63;7.22;;;9.30;99.90;;;;;;4939738;28;20031;-76
2022/11/10 02:30:49;;;;;;;12.15;7.45;;;9.20;99.90;;;;;;4944741;28;20034;-75
2022/11/10 02:33:17;;;;;;;10.80;7.22;;;9.30;99.90;;;;;;4936307;28;20038;-76
2022/11/10 02:35:44;;;;;;;8.93;6.60;;;9.20;99.90;;;;;;4933289;29;20289;-75
2022/11/10 02:38:10;;;;;;;9.63;6.20;;;9.20;99.90;;;;;;4936413;28;20050;-75
2022/11/10 02:40:36;;;;;;;9.05;6.40;;;9.00;99.90;;;;;;4940931;28;20531;-75
2022/11/10 02:43:04;;;;;;;11.32;6.40;;;9.10;99.90;;;;;;4938054;28;20023;-75
2022/11/10 02:45:30;;;;;;;10.93;6.38;;;9.10;99.90;;;;;;4943260;28;20031;-75
2022/11/10 02:47:55;;;;;;;9.90;6.28;;;9.10;99.90;;;;;;4939408;28;20046;-75
2022/11/10 02:50:21;;;;;;;10.10;6.57;;;9.10;99.90;;;;;;4941725;28;20034;-76
2022/11/10 02:52:46;;;;;;;9.77;6.72;;;9.20;99.90;;;;;;4937328;28;20028;-75
2022/11/10 02:55:12;;;;;;;9.57;5.97;;;9.20;99.90;;;;;;4938296;28;20508;-76
2022/11/10 02:57:38;;;;;;;10.75;7.15;;;9.20;99.90;;;;;;4938079;28;20498;-76
2022/11/10 03:00:05;;;;;;;9.52;6.72;;;9.20;99.90;;;;;;4937283;28;20035;-76
2022/11/10 03:02:31;;;;;;;11.77;6.97;;;9.10;99.90;;;;;;4940112;28;20618;-75
2022/11/10 03:04:57;;;;;;;8.98;6.13;;;9.10;99.90;;;;;;4939713;28;20114;-75
2022/11/10 03:07:22;;;;;;;11.80;6.38;;;9.20;99.90;;;;;;4940717;28;20062;-75
2022/11/10 03:09:48;;;;;;;9.68;6.03;;;9.30;99.90;;;;;;4942280;28;20500;-75
2022/11/10 03:12:13;;;;;;;9.95;6.25;;;9.20;99.90;;;;;;4944243;28;20063;-75
2022/11/10 03:14:39;;;;;;;10.30;6.30;;;9.30;99.90;;;;;;4937617;28;20541;-76
2022/11/10 03:17:05;;;;;;;9.23;6.40;;;9.30;99.90;;;;;;4941844;28;20038;-75
2022/11/10 03:19:30;;;;;;;11.35;6.15;;;9.10;99.90;;;;;;4940928;28;20054;-75
2022/11/10 03:21:56;;;;;;;9.10;6.00;;;9.10;99.90;;;;;;4941408;28;20515;-75
2022/11/10 03:24:22;;;;;;;11.18;6.47;;;9.00;99.90;;;;;;4944407;28;20027;-75
2022/11/10 03:26:47;;;;;;;9.63;6.95;;;9.00;99.90;;;;;;4938484;28;20070;-75
2022/11/10 03:29:13;;;;;;;11.57;6.80;;;9.10;99.90;;;;;;4937719;28;20034;-76
2022/11/10 03:31:39;;;;;;;8.88;6.20;;;9.30;99.90;;;;;;4944084;28;20043;-75
2022/11/10 03:34:05;;;;;;;9.70;5.85;;;9.30;99.90;;;;;;4942378;28;20027;-75
2022/11/10 03:36:30;;;;;;;9.98;6.57;;;9.30;99.90;;;;;;4942832;28;20138;-75
2022/11/10 03:38:56;;;;;;;8.40;6.75;;;9.30;99.90;;;;;;4944674;28;20040;-75
2022/11/10 03:41:22;;;;;;;8.70;6.15;;;9.30;99.90;;;;;;4947046;28;20023;-76
2022/11/10 03:43:48;;;;;;;10.25;7.47;;;9.30;99.90;;;;;;4936297;28;20031;-76
2022/11/10 03:46:14;;;;;;;10.20;6.93;;;9.20;99.90;;;;;;4940396;28;20035;-75
2022/11/10 03:48:40;;;;;;;9.93;6.65;;;9.20;99.90;;;;;;4943455;28;20027;-75
2022/11/10 03:51:05;;;;;;;11.93;6.40;;;9.20;99.90;;;;;;4936117;28;20038;-76
2022/11/10 03:53:31;;;;;;;8.82;6.68;;;9.20;99.90;;;;;;4935426;28;20034;-75
2022/11/10 03:56:00;;;;;;;11.68;6.72;;;9.20;99.90;;;;;;4934750;28;20031;-75
2022/11/10 03:58:26;;;;;;;13.23;7.45;;;9.10;99.90;;;;;;4938849;28;20066;-75
2022/11/10 04:00:53;;;;;;;10.65;6.75;;;9.20;99.90;;;;;;4940313;29;20027;-76
2022/11/10 04:03:18;;;;;;;12.70;7.43;;;9.30;99.90;;;;;;4943413;28;20031;-76
2022/11/10 04:15:40;;;;;;;10.20;7.60;;;9.30;99.90;;;;;;4948722;28;20050;-76
2022/11/10 04:16:42;;;;;;;12.40;7.38;;;9.40;99.90;;;;;;4927181;28;20067;-75
2022/11/10 04:19:08;;;;;;;10.27;7.28;;;9.50;99.90;;;;;;4934708;28;20055;-75
2022/11/10 04:21:33;;;;;;;12.38;7.82;;;9.40;99.90;;;;;;4931254;28;20119;-76
2022/11/10 04:23:59;;;;;;;9.65;7.38;;;9.40;99.90;;;;;;4938424;28;20059;-76
2022/11/10 04:26:27;;;;;;;9.27;7.00;;;9.40;99.90;;;;;;4943266;28;20032;-76
2022/11/10 04:29:00;;;;;;;11.05;6.82;;;9.30;99.90;;;;;;4929906;28;20470;-76
2022/11/10 04:31:29;;;;;;;10.40;7.30;;;9.30;99.90;;;;;;4934880;28;20031;-76
2022/11/10 04:33:55;;;;;;;11.43;6.90;;;9.30;99.90;;;;;;4943384;28;20035;-76
2022/11/10 04:36:24;;;;;;;13.48;7.35;;;9.40;99.90;;;;;;4938691;28;20134;-75
2022/11/10 04:38:50;;;;;;;9.82;6.78;;;9.40;99.90;;;;;;4942637;28;20047;-76
2022/11/10 04:41:15;;;;;;;12.63;7.75;;;9.40;99.90;;;;;;4943063;28;20062;-76
2022/11/10 04:43:41;;;;;;;9.73;6.57;;;9.40;99.90;;;;;;4955940;28;20020;-76
2022/11/10 04:46:30;;;;;;;10.27;6.38;;;9.40;99.90;;;;;;4949494;28;20498;-76
2022/11/10 04:48:56;;;;;;;10.20;6.60;;;9.50;99.90;;;;;;4938502;28;20039;-76
2022/11/10 04:51:25;;;;;;;10.65;7.10;;;9.50;99.90;;;;;;4942934;28;20082;-76
2022/11/10 04:53:50;;;;;;;10.65;6.72;;;9.60;99.90;;;;;;4943243;28;20031;-75
2022/11/10 04:56:18;;;;;;;10.30;6.68;;;9.60;99.90;;;;;;4936925;28;20043;-76
2022/11/10 04:58:44;;;;;;;10.13;7.32;;;9.50;99.90;;;;;;4931485;28;20051;-75
2022/11/10 05:01:12;;;;;;;12.55;8.10;;;9.30;99.90;;;;;;4938858;28;20130;-75
2022/11/10 05:03:38;;;;;;;11.23;7.57;;;9.40;99.90;;;;;;4924282;29;20055;-75
2022/11/10 05:06:04;;;;;;;11.23;7.57;;;9.40;99.90;;;;;;4926416;28;20053;-76
2022/11/10 05:08:30;;;;;;;10.05;7.57;;;9.40;99.90;;;;;;4936731;28;20091;-76
2022/11/10 05:10:56;;;;;;;10.52;7.22;;;9.40;99.90;;;;;;4929203;29;20036;-76
2022/11/10 05:13:22;;;;;;;10.60;7.82;;;9.40;99.90;;;;;;4924737;28;20035;-76
2022/11/10 05:15:47;;;;;;;10.40;7.15;;;9.30;99.90;;;;;;4925711;28;20075;-76
2022/11/10 05:18:13;;;;;;;10.23;6.93;;;9.40;99.90;;;;;;4935506;28;20382;-76
2022/11/10 05:20:38;;;;;;;12.88;6.72;;;9.30;99.90;;;;;;4931119;28;20032;-76
2022/11/10 05:25:49;;;;;;;9.65;7.15;;;9.40;99.90;;;;;;4926603;28;20042;-75
2022/11/10 05:28:16;;;;;;;10.57;7.20;;;9.30;99.90;;;;;;4925486;28;20050;-76
2022/11/10 05:30:42;;;;;;;12.55;7.40;;;9.30;99.90;;;;;;4933588;28;20050;-75
2022/11/10 05:33:08;;;;;;;9.93;7.43;;;9.40;99.90;;;;;;4932473;28;20054;-76
2022/11/10 05:35:35;;;;;;;10.00;6.60;;;9.30;99.90;;;;;;4924285;28;20032;-76
2022/11/10 05:38:01;;;;;;;9.75;6.85;;;9.30;99.90;;;;;;4926021;28;20150;-76
2022/11/10 05:40:28;;;;;;;10.18;7.13;;;9.30;99.90;;;;;;4935240;29;20419;-76
2022/11/10 05:42:53;;;;;;;11.95;6.50;;;9.30;99.90;;;;;;4941839;28;20668;-76
2022/11/10 05:45:24;;;;;;;9.60;6.60;;;9.40;99.90;;;;;;4933909;28;20106;-76
2022/11/10 05:47:51;;;;;;;11.82;7.10;;;9.40;99.90;;;;;;4938456;28;20043;-76
2022/11/10 05:50:18;;;;;;;32.15;25.55;;;9.40;99.90;;;;;;4928798;28;20032;-76
2022/11/10 05:52:47;;;;;;;9.73;7.45;;;9.40;99.90;;;;;;4927843;28;20134;-76
2022/11/10 05:55:13;;;;;;;11.50;7.80;;;9.40;99.90;;;;;;4932153;29;20039;-76
2022/11/10 05:57:45;;;;;;;12.48;7.53;;;9.40;99.90;;;;;;4934535;28;20051;-76
2022/11/10 06:00:12;;;;;;;9.00;6.63;;;9.50;99.90;;;;;;4926132;28;20035;-76
2022/11/10 06:02:39;;;;;;;9.68;6.88;;;9.50;99.90;;;;;;4933883;28;20035;-75
2022/11/10 06:05:06;;;;;;;9.55;6.13;;;9.40;99.90;;;;;;4934515;29;20079;-76
2022/11/10 06:07:31;;;;;;;11.10;7.00;;;9.40;99.90;;;;;;4936272;28;20031;-76
2022/11/10 06:09:57;;;;;;;11.05;7.32;;;9.50;99.90;;;;;;4940216;28;20402;-76
2022/11/10 06:12:23;;;;;;;9.13;6.57;;;9.50;99.90;;;;;;4938113;28;20039;-76
2022/11/10 06:14:50;;;;;;;9.85;7.00;;;9.50;99.90;;;;;;4934017;28;20451;-76
2022/11/10 06:17:17;;;;;;;10.85;7.75;;;9.40;99.90;;;;;;4928652;28;20032;-76
2022/11/10 06:19:42;;;;;;;11.60;7.28;;;9.30;99.90;;;;;;4937093;29;20070;-75
2022/11/10 06:22:08;;;;;;;14.82;8.48;;;9.30;99.90;;;;;;4939289;28;20801;-75
2022/11/10 06:24:34;;;;;;;10.32;7.57;;;9.20;99.90;;;;;;4934446;28;20058;-76
2022/11/10 06:27:00;;;;;;;11.55;7.43;;;9.30;99.90;;;;;;4937715;28;20036;-76
2022/11/10 06:29:25;;;;;;;12.70;7.80;;;9.30;99.90;;;;;;4928975;29;20106;-76
2022/11/10 06:31:51;;;;;;;10.40;6.97;;;9.20;99.90;;;;;;4929046;29;20046;-75
2022/11/10 06:34:17;;;;;;;9.02;7.13;;;9.10;99.90;;;;;;4939445;28;20039;-76
2022/11/10 06:36:43;;;;;;;10.55;6.70;;;9.20;99.90;;;;;;4940375;28;20035;-76
2022/11/10 06:39:09;;;;;;;9.88;7.40;;;9.40;99.90;;;;;;4933206;29;20066;-76
2022/11/10 06:41:34;;;;;;;9.57;6.18;;;9.40;99.90;;;;;;4933608;28;20363;-75
2022/11/10 06:44:00;;;;;;;10.20;7.28;;;9.40;99.90;;;;;;4932994;28;20130;-75
2022/11/10 06:46:26;;;;;;;10.77;7.32;;;9.40;99.90;;;;;;4934017;29;20701;-75
2022/11/10 06:48:51;;;;;;;9.60;6.30;;;9.40;99.90;;;;;;4932761;28;20032;-75
2022/11/10 06:51:17;;;;;;;8.38;6.25;;;9.40;99.90;;;;;;4935505;28;20035;-75
2022/11/10 06:53:43;;;;;;;10.07;6.70;;;9.40;99.90;;;;;;4936067;28;20042;-75
2022/11/10 06:56:09;;;;;;;10.48;6.60;;;9.50;99.90;;;;;;4938095;28;20154;-75
2022/11/10 06:58:35;;;;;;;9.50;6.03;;;9.50;99.90;;;;;;4937400;29;20055;-74
2022/11/10 07:01:00;;;;;;;10.75;6.93;;;9.50;99.90;;;;;;4932889;28;20407;-73
2022/11/10 07:03:27;;;;;;;11.35;7.00;;;9.50;99.90;;;;;;4925616;29;20047;-74
2022/11/10 07:05:52;;;;;;;10.70;7.00;;;9.60;99.90;;;;;;4939882;28;20027;-73
2022/11/10 07:08:18;;;;;;;10.00;7.05;;;9.50;99.90;;;;;;4928126;29;20043;-73
2022/11/10 07:10:50;;;;;;;11.35;6.47;;;9.60;99.90;;;;;;4925342;29;20034;-73
2022/11/10 07:13:16;;;;;;;9.98;6.65;;;9.70;99.90;;;;;;4932212;29;20036;-73
2022/11/10 07:15:42;;;;;;;11.52;6.82;;;9.60;99.90;;;;;;4934261;28;20059;-73
2022/11/10 07:18:08;;;;;;;8.63;6.32;;;9.50;99.90;;;;;;4928813;28;20030;-74
2022/11/10 07:20:34;;;;;;;9.20;6.47;;;9.60;99.90;;;;;;4932120;28;20043;-74
2022/11/10 07:23:02;;;;;;;11.43;6.65;;;9.70;99.90;;;;;;4924954;29;20107;-73
2022/11/10 07:25:30;;;;;;;10.77;6.00;;;9.70;99.90;;;;;;4934596;29;20038;-74
2022/11/10 07:27:57;;;;;;;10.90;6.40;;;9.70;99.90;;;;;;4934211;28;20040;-75
2022/11/10 07:30:23;;;;;;;8.07;6.13;;;9.80;99.90;;;;;;4925759;28;20063;-74
2022/11/10 07:33:06;;;;;;;10.10;6.53;;;9.70;99.90;;;;;;4929850;29;20135;-74
2022/11/10 07:35:33;;;;;;;10.07;6.45;;;9.80;99.90;;;;;;4937435;29;20359;-74
2022/11/10 07:38:03;;;;;;;11.20;7.50;;;9.90;99.90;;;;;;4938673;28;20039;-74
2022/11/10 07:40:29;;;;;;;10.40;8.15;;;9.90;99.90;;;;;;4933515;29;20428;-74
2022/11/10 07:42:54;;;;;;;15.35;9.00;;;9.90;99.90;;;;;;4936123;28;20067;-74
2022/11/10 07:45:20;;;;;;;10.32;7.85;;;9.70;99.90;;;;;;4935352;29;20082;-74
2022/11/10 07:47:46;;;;;;;15.85;10.15;;;9.60;99.90;;;;;;4931908;28;20050;-73
2022/11/10 07:50:11;;;;;;;11.85;8.45;;;9.50;99.90;;;;;;4928892;29;20032;-74
2022/11/10 07:52:37;;;;;;;12.45;8.90;;;9.50;99.90;;;;;;4923439;28;20101;-74
2022/11/10 07:55:04;;;;;;;11.30;7.68;;;9.70;99.90;;;;;;4941458;28;20051;-74
2022/11/10 07:57:31;;;;;;;14.38;8.00;;;9.70;99.90;;;;;;4947123;28;20396;-74
2022/11/10 07:59:57;;;;;;;14.68;9.38;;;9.80;99.90;;;;;;4935329;28;20106;-75
2022/11/10 08:02:22;;;;;;;13.30;8.95;;;9.80;99.90;;;;;;4939805;28;20027;-74
2022/11/10 08:04:48;;;;;;;15.70;9.85;;;9.90;99.90;;;;;;4928343;29;20038;-74
2022/11/10 08:07:14;;;;;;;18.48;9.77;;;9.80;99.90;;;;;;4931741;29;20055;-73
2022/11/10 08:09:39;;;;;;;13.10;10.05;;;9.70;99.90;;;;;;4925785;29;20102;-74
2022/11/10 08:12:05;;;;;;;13.60;9.02;;;9.70;99.90;;;;;;4938633;28;20027;-74
2022/11/10 08:14:31;;;;;;;15.60;9.25;;;9.80;99.90;;;;;;4933144;28;20169;-74
2022/11/10 08:16:56;;;;;;;14.05;9.93;;;9.80;99.90;;;;;;4939830;29;20028;-74
2022/11/10 08:19:22;;;;;;;15.90;10.60;;;9.80;99.90;;;;;;4934444;28;20051;-74
2022/11/10 08:21:47;;;;;;;14.40;10.43;;;9.90;99.90;;;;;;4931370;28;20470;-74
2022/11/10 08:24:13;;;;;;;14.70;11.00;;;9.90;99.90;;;;;;4940097;29;20024;-74
2022/11/10 08:26:39;;;;;;;15.35;10.63;;;9.80;99.90;;;;;;4932846;29;20042;-74
2022/11/10 08:29:04;;;;;;;13.07;8.48;;;9.80;99.90;;;;;;4934591;28;20086;-74
2022/11/10 08:31:32;;;;;;;14.30;9.70;;;10.00;99.90;;;;;;4939427;28;20065;-74
2022/11/10 08:33:57;;;;;;;14.10;7.85;;;10.10;99.90;;;;;;4938200;28;20042;-74
2022/11/10 08:36:23;;;;;;;14.93;10.82;;;10.30;99.90;;;;;;4937036;28;20035;-74
2022/11/10 08:38:49;;;;;;;17.90;10.48;;;10.40;99.90;;;;;;4937961;28;20039;-74
2022/11/10 08:41:15;;;;;;;12.25;9.43;;;10.30;99.90;;;;;;4926981;28;20367;-74
2022/11/10 08:43:40;;;;;;;10.90;8.02;;;10.20;99.90;;;;;;4934173;28;20070;-74
2022/11/10 08:46:07;;;;;;;12.07;7.97;;;10.10;99.90;;;;;;4935070;29;20655;-74
2022/11/10 08:48:32;;;;;;;15.32;11.40;;;10.30;99.90;;;;;;4927180;28;20038;-74
2022/11/10 08:51:00;;;;;;;18.17;12.52;;;10.40;99.90;;;;;;4930472;29;20105;-74
2022/11/10 08:53:25;;;;;;;14.45;9.75;;;10.30;99.90;;;;;;4931695;28;20063;-74
2022/11/10 08:55:52;;;;;;;11.35;7.88;;;10.20;99.90;;;;;;4933515;28;20453;-74
2022/11/10 08:58:20;;;;;;;15.32;10.20;;;10.30;99.90;;;;;;4925797;29;20052;-74
2022/11/10 09:00:46;;;;;;;13.10;10.60;;;10.40;99.90;;;;;;4933252;29;20498;-74
2022/11/10 09:03:15;;;;;;;14.98;10.80;;;10.30;99.90;;;;;;4933223;28;20036;-75
2022/11/10 09:05:41;;;;;;;17.23;12.20;;;10.20;99.90;;;;;;4926252;29;20127;-74
2022/11/10 09:08:08;;;;;;;12.95;10.68;;;10.20;99.90;;;;;;4936073;28;20612;-74
2022/11/10 09:10:37;;;;;;;15.65;10.05;;;10.20;99.90;;;;;;4940337;29;20118;-75
2022/11/10 09:13:03;;;;;;;15.07;10.90;;;10.10;99.90;;;;;;4929472;28;20063;-75
2022/11/10 09:15:30;;;;;;;16.05;10.77;;;10.10;99.90;;;;;;4934489;29;20123;-74
2022/11/10 09:18:00;;;;;;;13.88;10.57;;;10.20;99.90;;;;;;4926032;29;20035;-74
2022/11/10 09:20:27;;;;;;;13.90;10.45;;;10.20;99.90;;;;;;4941512;28;20478;-74
2022/11/10 09:22:53;;;;;;;13.65;10.10;;;10.20;99.90;;;;;;4938065;28;20430;-74
2022/11/10 09:25:19;;;;;;;12.95;9.70;;;10.10;99.90;;;;;;4934661;29;20112;-74
2022/11/10 09:27:45;;;;;;;14.90;10.35;;;10.10;99.90;;;;;;4928569;28;24749;-74
2022/11/10 09:30:11;;;;;;;15.73;11.25;;;10.20;99.90;;;;;;4928518;28;20059;-74
2022/11/10 09:32:37;;;;;;;14.43;10.18;;;10.30;99.90;;;;;;4933239;29;21098;-74
2022/11/10 09:35:03;;;;;;;14.70;9.52;;;10.30;99.90;;;;;;4943832;28;20027;-74
2022/11/10 09:37:29;;;;;;;15.50;10.20;;;10.30;99.90;;;;;;4932059;28;20044;-74
2022/11/10 09:39:55;;;;;;;17.50;10.38;;;10.30;99.90;;;;;;4933536;28;20053;-74
2022/11/10 09:42:35;;;;;;;16.25;9.90;;;10.40;99.90;;;;;;4941780;28;20382;-74
2022/11/10 09:45:38;;;;;;;14.77;10.45;;;10.40;99.90;;;;;;4942853;28;20035;-74
2022/11/10 09:48:12;;;;;;;14.20;10.45;;;10.50;99.90;;;;;;4936825;29;20347;-74
2022/11/10 09:50:51;;;;;;;14.25;10.18;;;10.60;99.90;;;;;;4935379;28;20027;-74
2022/11/10 09:53:25;;;;;;;12.02;9.05;;;10.60;99.90;;;;;;4934448;28;20028;-74
2022/11/10 09:56:07;;;;;;;13.52;10.25;;;10.70;99.90;;;;;;4931139;29;20031;-74
2022/11/10 09:58:39;;;;;;;14.77;11.55;;;10.80;99.90;;;;;;4941478;28;20486;-74
2022/11/10 10:01:29;;;;;;;17.20;11.15;;;10.80;99.90;;;;;;4946539;29;20034;-74
2022/11/10 10:04:12;;;;;;;16.27;10.80;;;10.80;99.90;;;;;;4936984;28;20039;-74
2022/11/10 10:06:48;;;;;;;15.77;11.38;;;10.90;99.90;;;;;;4932297;28;20036;-74
2022/11/10 10:09:35;;;;;;;15.57;11.52;;;10.90;99.90;;;;;;4939011;29;20039;-74
2022/11/10 10:12:29;;;;;;;15.45;10.80;;;11.00;99.90;;;;;;4929372;29;20038;-74
2022/11/10 10:15:26;;;;;;;14.50;11.20;;;11.00;99.90;;;;;;4928308;29;20035;-74
2022/11/10 10:18:05;;;;;;;15.80;11.00;;;11.10;99.90;;;;;;4928601;29;20031;-74
2022/11/10 10:20:56;;;;;;;12.98;10.05;;;11.10;99.90;;;;;;4939567;28;20027;-74
2022/11/10 10:23:33;;;;;;;14.73;10.98;;;11.10;99.90;;;;;;4939621;29;20035;-74
2022/11/10 10:25:59;;;;;;;15.98;11.68;;;11.20;99.90;;;;;;4935808;28;20031;-74
2022/11/10 10:28:34;;;;;;;15.73;11.20;;;11.30;99.90;;;;;;4940259;28;20092;-74
2022/11/10 10:31:15;;;;;;;17.50;11.27;;;11.30;99.90;;;;;;4940438;28;20068;-74
2022/11/10 10:33:41;;;;;;;16.77;11.20;;;11.30;99.90;;;;;;4936333;29;20110;-74
2022/11/10 10:36:16;;;;;;;15.65;11.23;;;11.40;99.90;;;;;;4936290;29;20067;-74
2022/11/10 10:38:44;;;;;;;18.98;12.60;;;11.50;99.90;;;;;;4936751;28;20051;-74
2022/11/10 10:41:31;;;;;;;18.95;11.93;;;11.60;99.90;;;;;;4928945;29;20036;-74
2022/11/10 10:43:59;;;;;;;16.70;10.95;;;11.80;99.90;;;;;;4945600;28;20142;-74
2022/11/10 10:46:28;;;;;;;17.27;11.00;;;11.90;99.90;;;;;;4942180;29;20742;-74
2022/11/10 10:49:05;;;;;;;14.18;10.48;;;11.80;99.90;;;;;;4939554;28;20105;-74
2022/11/10 10:51:31;;;;;;;15.05;11.73;;;11.90;99.90;;;;;;4938863;28;20035;-74
2022/11/10 10:53:57;;;;;;;17.17;11.18;;;11.90;99.90;;;;;;4937341;28;20031;-74
2022/11/10 10:56:27;;;;;;;15.40;11.70;;;12.00;99.90;;;;;;4941036;28;20023;-74
2022/11/10 10:59:01;;;;;;;15.50;11.05;;;12.20;99.90;;;;;;4929597;29;20046;-74
2022/11/10 11:01:32;;;;;;;16.27;11.27;;;12.20;99.90;;;;;;4940677;29;20042;-74
2022/11/10 11:03:59;;;;;;;14.13;10.23;;;12.30;99.90;;;;;;4943525;28;20047;-73
2022/11/10 11:06:27;;;;;;;14.23;9.70;;;12.20;99.90;;;;;;4931239;28;20032;-74
2022/11/10 11:08:53;;;;;;;15.48;10.48;;;12.20;99.90;;;;;;4934929;29;20031;-74
2022/11/10 11:11:24;;;;;;;13.20;9.98;;;12.20;99.90;;;;;;4930765;28;20027;-74
2022/11/10 11:13:49;;;;;;;13.13;10.00;;;12.30;99.90;;;;;;4935867;28;20659;-73
2022/11/10 11:16:15;;;;;;;12.73;10.35;;;12.40;99.90;;;;;;4942499;28;20035;-73
2022/11/10 11:18:41;;;;;;;13.18;9.88;;;12.50;99.90;;;;;;4943531;29;20031;-74
2022/11/10 11:21:28;;;;;;;12.70;9.70;;;12.50;99.90;;;;;;4929503;28;20115;-74
2022/11/10 11:24:14;;;;;;;13.23;9.85;;;12.50;99.90;;;;;;4927852;29;20051;-74
2022/11/10 11:27:01;;;;;;;15.98;8.57;;;12.70;99.90;;;;;;4937582;28;20473;-73
2022/11/10 11:29:48;;;;;;;12.82;9.18;;;12.60;99.90;;;;;;4939335;29;20525;-74
2022/11/10 11:32:45;;;;;;;13.73;9.35;;;12.90;99.90;;;;;;4933738;29;20027;-74
2022/11/10 11:35:13;;;;;;;14.93;9.25;;;13.20;99.90;;;;;;4937108;29;20402;-73
2022/11/10 11:38:04;;;;;;;10.80;8.80;;;13.30;99.90;;;;;;4932833;28;20090;-73
2022/11/10 11:40:46;;;;;;;11.95;8.93;;;13.20;99.90;;;;;;4928677;29;20100;-74
2022/11/10 11:43:15;;;;;;;11.52;8.98;;;13.20;99.90;;;;;;4934240;28;20163;-74
2022/11/10 11:45:55;;;;;;;10.82;7.55;;;13.20;99.90;;;;;;4938658;29;20066;-74
2022/11/10 11:48:58;;;;;;;11.15;7.82;;;13.30;99.90;;;;;;4942748;28;20065;-73
2022/11/10 11:51:26;;;;;;;11.02;7.65;;;13.20;99.90;;;;;;4937586;28;20091;-73
2022/11/10 11:54:15;;;;;;;9.75;7.13;;;13.30;99.90;;;;;;4927686;29;20071;-74
2022/11/10 11:56:44;;;;;;;10.98;6.63;;;13.40;99.90;;;;;;4933060;28;20047;-74
2022/11/10 11:59:24;;;;;;;11.18;7.30;;;13.60;99.90;;;;;;4940511;28;20433;-73
2022/11/10 12:02:32;;;;;;;12.23;7.13;;;13.70;99.90;;;;;;4941806;28;20050;-73
2022/11/10 12:05:24;;;;;;;10.90;6.30;;;13.70;99.90;;;;;;4929306;29;20032;-74
2022/11/10 12:07:58;;;;;;;9.93;6.15;;;13.60;99.90;;;;;;4936333;28;20067;-74
2022/11/10 12:10:42;;;;;;;17.45;7.45;;;13.50;99.90;;;;;;4934696;29;20035;-73
2022/11/10 12:13:35;;;;;;;9.50;6.03;;;13.60;99.90;;;;;;4932163;28;20028;-74
2022/11/10 12:16:20;;;;;;;12.13;7.28;;;13.90;99.90;;;;;;4944712;28;20034;-74
2022/11/10 12:18:56;;;;;;;9.85;5.95;;;14.10;99.90;;;;;;4927882;28;20382;-73
2022/11/10 12:21:22;;;;;;;8.30;5.63;;;14.10;99.90;;;;;;4935632;29;20031;-75
2022/11/10 12:24:16;;;;;;;8.25;5.75;;;13.90;99.90;;;;;;4935096;28;20126;-75
2022/11/10 12:27:13;;;;;;;8.73;5.82;;;13.80;99.90;;;;;;4939971;28;20094;-75
2022/11/10 12:29:54;;;;;;;9.48;6.38;;;13.70;99.90;;;;;;4933259;29;20082;-75
2022/11/10 12:32:40;;;;;;;7.90;5.78;;;13.70;99.90;;;;;;4933123;28;20026;-74
2022/11/10 12:35:23;;;;;;;8.30;5.85;;;13.90;99.90;;;;;;4932422;29;20175;-74
2022/11/10 12:37:54;;;;;;;10.88;5.85;;;14.10;99.90;;;;;;4929687;28;20485;-75
2022/11/10 12:40:24;;;;;;;7.22;5.43;;;14.10;99.90;;;;;;4941439;28;20043;-74
2022/11/10 12:42:59;;;;;;;11.25;5.65;;;14.00;99.90;;;;;;4938444;28;20090;-74
2022/11/10 12:45:35;;;;;;;8.73;6.07;;;14.00;99.90;;;;;;4928096;28;20032;-74
2022/11/10 12:48:03;;;;;;;10.95;5.93;;;14.30;99.90;;;;;;4931553;29;20038;-75
2022/11/10 12:50:56;;;;;;;7.00;4.95;;;14.30;99.90;;;;;;4933445;28;20050;-74
2022/11/10 12:53:23;;;;;;;7.93;5.50;;;14.30;99.90;;;;;;4938241;29;20442;-75
2022/11/10 12:55:57;;;;;;;11.75;5.65;;;14.20;99.90;;;;;;4929915;29;20131;-75
2022/11/10 12:58:23;;;;;;;8.03;4.90;;;14.20;99.90;;;;;;4934678;28;20196;-74
2022/11/10 13:01:03;;;;;;;8.32;5.38;;;14.30;99.90;;;;;;4942254;28;20035;-75
2022/11/10 13:03:37;;;;;;;8.57;4.82;;;14.40;99.90;;;;;;4928241;28;20677;-75
2022/11/10 13:06:30;;;;;;;7.27;4.60;;;14.40;99.90;;;;;;4930799;28;20035;-74
2022/11/10 13:08:57;;;;;;;9.50;4.95;;;14.30;99.90;;;;;;4933528;28;20288;-74